메인 페이지
METAR-TAF:

METAR-TAF

공항 :

Ponca City, 오클라호마, 미국

위도: 36-43-50N, 경도: 097-05-59W, 고도: 307m

현재 날씨관측

예보는 1 시간 10분 전, 23:53시(UTC)에 발표되었습니다.
북서6kt
온도 19°C
습도 30%
기압 1019 hPa
시정: 16.1km
맑음

METAR: KPNC 282353Z AUTO 32006KT 10SM CLR 19/01 A3010 RMK AO2 SLP188 T01940006 10228 20194 55006

시각: 20:03 (01:03 UTC)

예보

예보는 1 시간 38분 전, 23:25시(UTC)에 발표되었습니다.
예보 대상 시간: 29일 00시부터 29일 24시까지 (UTC)
북서12kt
시정: 10km
맑음
29일 0200시부터 (UTC)
3kt
시정: 10km
맑음
29일 1500시부터 (UTC)
북서11kt
시정: 10km
고도 25000ft 상공 구름 보통

TAF: KPNC 282325Z 2900/2924 32012KT P6SM SKC FM290200 27003KT P6SM SKC FM291500 32011KT P6SM SCT250

4,000개 이상의 공항 관측 자료 및 예보 (METAR 및 TAF 보고).

지도상에서 검색 가능한 기상관측소가 노란 점과 빨간 점으로 표시되어 있습니다.

기상관측소 명을 보려면 표시 위로 마우스를 이동하세요.

날씨 관측과 예보를 보려면 클릭하세요.

지도 변경 : 확대하려면 엑스 표시가 있는 녹색 버튼, 축소하려면 빼기 표시가 있는 녹색 버튼, 다음 페이지의 지도를 보려면 녹색 화살표를 클릭하세요.


METAR-TAF: